Monze Airport


Codes: FLMO/
Name: Monze Airport
City: Monze
Country: Zambia
Elevation: 3700 ft.

Photos at Monze Airport


   Photos courtesy of SpottingLog. You can add your own sightings and photos by signing up for a free trial today.



No photos found.

Weather at Monze Airport


Time (UTC)DescriptionTempratureWindCloud coverageVisibilityPressureHumidity
21-Feb-2024 03:00Scattered Clouds19°C7 mph, SE29%10000m1012hPa61%
21-Feb-2024 06:00Few Clouds21°C7 mph, SE16%10000m1013hPa58%
21-Feb-2024 09:00Clear Sky30°C4 mph, E1%10000m1012hPa37%
21-Feb-2024 12:00Clear Sky33°C9 mph, SE1%10000m1008hPa20%
21-Feb-2024 15:00Clear Sky30°C9 mph, SE2%10000m1007hPa27%
21-Feb-2024 18:00Clear Sky22°C4 mph, SE1%10000m1010hPa47%
21-Feb-2024 21:00Clear Sky20°C4 mph, SE3%10000m1011hPa53%
22-Feb-2024 00:00Clear Sky19°C4 mph, SE2%10000m1010hPa56%
22-Feb-2024 03:00Clear Sky17°C2 mph, E2%10000m1011hPa63%
22-Feb-2024 06:00Clear Sky23°C2 mph, NE1%10000m1012hPa51%
22-Feb-2024 09:00Clear Sky31°C4 mph, NE3%10000m1010hPa32%
22-Feb-2024 12:00Clear Sky34°C7 mph, E1%10000m1006hPa17%
22-Feb-2024 15:00Clear Sky31°C11 mph, SE7%10000m1006hPa27%
22-Feb-2024 18:00Clear Sky22°C4 mph, E8%10000m1009hPa47%
22-Feb-2024 21:00Clear Sky21°C4 mph, NE8%10000m1009hPa47%
23-Feb-2024 00:00Clear Sky19°C2 mph, NE10%10000m1010hPa52%
23-Feb-2024 03:00Few Clouds19°C2 mph, E11%10000m1011hPa55%
23-Feb-2024 06:00Few Clouds24°C4 mph, NE17%10000m1012hPa48%
23-Feb-2024 09:00Scattered Clouds32°C7 mph, NE32%10000m1011hPa30%
23-Feb-2024 12:00Few Clouds35°C7 mph, E24%10000m1006hPa19%
23-Feb-2024 15:00Few Clouds32°C11 mph, SE11%10000m1006hPa25%
23-Feb-2024 18:00Clear Sky22°C4 mph, E9%10000m1009hPa48%
23-Feb-2024 21:00Clear Sky22°C7 mph, NE6%10000m1010hPa46%
24-Feb-2024 00:00Few Clouds19°C2 mph, NE20%10000m1011hPa56%
24-Feb-2024 03:00Scattered Clouds18°C2 mph, SE49%10000m1013hPa57%
24-Feb-2024 06:00Scattered Clouds25°C4 mph, NE36%10000m1014hPa47%
24-Feb-2024 09:00Clear Sky32°C7 mph, NE6%10000m1011hPa28%
24-Feb-2024 12:00Clear Sky35°C7 mph, E8%10000m1007hPa19%
24-Feb-2024 15:00Clear Sky32°C11 mph, SE1%10000m1007hPa25%
24-Feb-2024 18:00Clear Sky23°C7 mph, E1%10000m1010hPa48%
24-Feb-2024 21:00Clear Sky22°C4 mph, NE0%10000m1012hPa47%
25-Feb-2024 00:00Clear Sky21°C4 mph, NE0%10000m1011hPa54%
25-Feb-2024 03:00Clear Sky18°C2 mph, NW0%10000m1013hPa69%
25-Feb-2024 06:00Clear Sky23°C7 mph, NW0%10000m1015hPa63%
25-Feb-2024 09:00Clear Sky31°C7 mph, N2%10000m1012hPa39%
25-Feb-2024 12:00Clear Sky35°C2 mph, NE2%10000m1008hPa27%
25-Feb-2024 15:00Scattered Clouds30°C9 mph, E50%10000m1007hPa36%
25-Feb-2024 18:00Scattered Clouds24°C2 mph, SE27%10000m1010hPa46%
25-Feb-2024 21:00Scattered Clouds24°C2 mph, NE26%10000m1010hPa44%
26-Feb-2024 00:00Scattered Clouds20°C2 mph, N25%10000m1011hPa57%